« Back
NWS Peachtree City, Ga » Text Product » ATL Terminal Aerodrome Forecast


Printer-friendly Version
Current Version              Previous Versions:   1  2  3  4  5  6  7  8  9  

Terminal Aerodrome Forecast

951
FTUS42 KFFC 311945 AAA
TAFATL
TAF AMD
KATL 311945Z 3120/0124 06011KT P6SM SCT050
     FM010200 08006KT P6SM SCT120 SCT250
     FM011400 04008KT P6SM SCT030 SCT120
     FM011700 31004KT P6SM SCT040
     FM011900 35006KT P6SM SCT050
     FM012200 35006KT P6SM VCSH BKN045=



USA.gov is the U.S. government's official web portal to all federal, state and local government web resources and services.